Terminal Aerodrome Forecast
Issued by NWS Rapid City, SD

Home | Current Version | Previous Version | Text Only | Print | Product List | Glossary Off
Versions: 1 2 3 4 5 6 7 8 9 10 11 12 13 14 15 16 17

409
FTUS43 KUNR 180336 AAA
TAFRAP
TAF AMD
KRAP 180336Z 1804/1824 34020G30KT P6SM -SHRA SCT025 OVC040
      TEMPO 1804/1805 BKN020
     FM180800 32012KT P6SM SCT020 BKN050
     FM181500 33020G30KT P6SM SCT040=

USA.gov is the U.S. government's official web portal to all federal, state and local government web resources and services.